createdAt,value
2022-09-20T00:01:28.201Z,11.06
2022-09-20T00:03:57.981Z,11.04
2022-09-20T00:06:27.957Z,10.95
2022-09-20T00:08:56.778Z,10.99
2022-09-20T00:11:27.048Z,11.50
2022-09-20T00:13:56.643Z,11.41
2022-09-20T00:16:28.262Z,10.90
2022-09-20T00:18:58.346Z,10.75
2022-09-20T00:21:28.671Z,11.40
2022-09-20T00:24:00.213Z,11.55
2022-09-20T00:26:28.609Z,11.28
2022-09-20T00:28:58.149Z,11.37
2022-09-20T00:31:26.174Z,11.29
2022-09-20T00:34:14.380Z,10.91
2022-09-20T00:36:42.281Z,10.48
2022-09-20T00:39:13.400Z,10.98
2022-09-20T00:41:41.023Z,11.06
2022-09-20T00:44:41.070Z,11.15
2022-09-20T00:47:25.293Z,11.01
2022-09-20T00:50:36.879Z,11.19
2022-09-20T00:53:04.751Z,11.04
2022-09-20T00:55:36.323Z,11.11
2022-09-20T00:58:05.224Z,11.00
2022-09-20T01:00:33.014Z,10.77
2022-09-20T01:03:06.209Z,10.60
2022-09-20T01:05:35.920Z,10.50
2022-09-20T01:08:04.444Z,10.70
2022-09-20T01:10:33.036Z,11.09
2022-09-20T01:13:01.001Z,10.82
2022-09-20T01:15:31.385Z,11.01
2022-09-20T01:18:01.707Z,11.22
2022-09-20T01:20:32.478Z,11.01
2022-09-20T01:23:18.737Z,11.15
2022-09-20T01:26:23.490Z,10.59
2022-09-20T01:29:05.787Z,10.60
2022-09-20T01:31:36.467Z,10.64
2022-09-20T01:34:11.229Z,10.93
2022-09-20T01:37:09.646Z,10.50
2022-09-20T01:39:52.399Z,10.89
2022-09-20T01:42:27.525Z,10.87
2022-09-20T01:45:04.171Z,11.20
2022-09-20T01:47:41.817Z,11.13
2022-09-20T01:50:21.189Z,11.23
2022-09-20T01:53:33.555Z,11.27
2022-09-20T01:56:01.047Z,11.19
2022-09-20T01:59:23.197Z,11.28
2022-09-20T02:01:51.976Z,11.15
2022-09-20T02:04:28.922Z,10.87
2022-09-20T02:07:20.868Z,10.55
2022-09-20T02:10:32.476Z,10.33
2022-09-20T02:13:04.665Z,10.93
2022-09-20T02:15:50.328Z,10.55
2022-09-20T02:18:42.368Z,10.86
2022-09-20T02:21:10.094Z,10.31
2022-09-20T02:23:57.776Z,10.41
2022-09-20T02:26:41.179Z,10.95
2022-09-20T02:29:33.755Z,10.77
2022-09-20T02:32:43.678Z,10.57
2022-09-20T02:35:37.522Z,10.94
2022-09-20T02:38:11.771Z,11.03
2022-09-20T02:40:45.289Z,11.02
2022-09-20T02:43:18.096Z,10.92
2022-09-20T02:46:01.276Z,10.97
2022-09-20T02:48:45.795Z,10.02
2022-09-20T02:51:33.975Z,9.91
2022-09-20T02:54:14.076Z,10.25
2022-09-20T02:57:06.337Z,10.46
2022-09-20T02:59:52.708Z,10.72
2022-09-20T03:02:56.866Z,10.77
2022-09-20T03:05:32.171Z,10.74
2022-09-20T03:08:05.560Z,10.86
2022-09-20T03:10:54.477Z,10.88
2022-09-20T03:13:37.420Z,10.88
2022-09-20T03:16:17.076Z,10.87
2022-09-20T03:19:22.556Z,10.77
2022-09-20T03:22:20.804Z,10.79
2022-09-20T03:24:57.531Z,10.86
2022-09-20T03:27:25.236Z,10.34
2022-09-20T03:30:04.902Z,10.35
2022-09-20T03:32:38.695Z,10.43
2022-09-20T03:35:33.801Z,10.23
2022-09-20T03:38:22.970Z,10.27
2022-09-20T03:41:12.356Z,10.47
2022-09-20T03:43:49.190Z,10.44
2022-09-20T03:46:20.293Z,10.78
2022-09-20T03:49:29.982Z,10.52
2022-09-20T03:52:36.772Z,10.61
2022-09-20T03:55:16.462Z,10.52
2022-09-20T03:58:09.215Z,10.72
2022-09-20T04:00:53.014Z,10.36
2022-09-20T04:03:46.838Z,10.65
2022-09-20T04:06:17.254Z,10.77
2022-09-20T04:09:22.220Z,10.10
2022-09-20T04:12:30.922Z,10.30
2022-09-20T04:15:33.897Z,10.10
2022-09-20T04:18:16.315Z,10.53
2022-09-20T04:20:50.568Z,10.70
2022-09-20T04:23:29.972Z,10.33
2022-09-20T04:26:01.126Z,9.98
2022-09-20T04:28:37.534Z,10.34
2022-09-20T04:31:45.561Z,10.35
2022-09-20T04:34:21.844Z,9.79
2022-09-20T04:37:17.560Z,9.83
2022-09-20T04:39:57.223Z,10.24
2022-09-20T04:42:52.327Z,9.80
2022-09-20T04:45:22.661Z,10.36
2022-09-20T04:48:27.991Z,10.48
2022-09-20T04:51:15.255Z,10.71
2022-09-20T04:54:04.368Z,10.69
2022-09-20T04:56:58.418Z,10.23
2022-09-20T04:59:32.251Z,10.63
2022-09-20T05:02:11.827Z,10.71
2022-09-20T05:05:00.304Z,10.71
2022-09-20T05:07:52.947Z,10.69
2022-09-20T05:10:51.818Z,9.55
2022-09-20T05:13:29.507Z,10.29
2022-09-20T05:16:04.365Z,10.08
2022-09-20T05:18:44.912Z,10.26
2022-09-20T05:21:41.232Z,10.75
2022-09-20T05:24:52.754Z,10.73
2022-09-20T05:27:33.722Z,10.59
2022-09-20T05:30:12.625Z,10.73
2022-09-20T05:32:45.969Z,11.06
2022-09-20T05:35:58.194Z,11.28
2022-09-20T05:38:56.406Z,11.40
2022-09-20T05:41:43.867Z,11.14
2022-09-20T05:44:47.606Z,11.38
2022-09-20T05:47:52.766Z,10.82
2022-09-20T05:50:42.451Z,11.12
2022-09-20T05:53:39.552Z,11.51
2022-09-20T05:56:48.559Z,11.43
2022-09-20T05:59:22.644Z,11.53
2022-09-20T06:02:23.885Z,11.76
2022-09-20T06:05:03.562Z,11.74
2022-09-20T06:07:55.796Z,11.11
2022-09-20T06:10:26.146Z,11.52
2022-09-20T06:13:15.141Z,11.78
2022-09-20T06:15:54.859Z,12.03
2022-09-20T06:18:26.040Z,12.14
2022-09-20T06:21:29.380Z,12.06
2022-09-20T06:24:02.738Z,11.99
2022-09-20T06:26:36.872Z,12.32
2022-09-20T06:29:11.570Z,12.47
2022-09-20T06:31:39.467Z,12.63
2022-09-20T06:34:10.548Z,12.51
2022-09-20T06:37:02.779Z,12.97
2022-09-20T06:40:04.022Z,12.98
2022-09-20T06:42:31.788Z,13.08
2022-09-20T06:44:59.710Z,11.96
2022-09-20T06:47:27.582Z,13.00
2022-09-20T06:49:55.656Z,12.86
2022-09-20T06:52:23.623Z,12.97
2022-09-20T06:54:54.778Z,13.04
2022-09-20T06:57:28.050Z,12.71
2022-09-20T06:59:55.903Z,13.18
2022-09-20T07:02:23.570Z,13.09
2022-09-20T07:04:54.133Z,13.37
2022-09-20T07:07:22.004Z,13.28
2022-09-20T07:09:49.742Z,13.07
2022-09-20T07:12:18.782Z,13.30
2022-09-20T07:14:46.655Z,13.56
2022-09-20T07:17:14.738Z,13.48
2022-09-20T07:19:42.436Z,13.52
2022-09-20T07:22:11.057Z,13.66
2022-09-20T07:24:39.109Z,13.47
2022-09-20T07:27:07.306Z,13.57
2022-09-20T07:29:35.530Z,13.37
2022-09-20T07:32:03.764Z,13.82
2022-09-20T07:34:32.122Z,13.89
2022-09-20T07:37:00.079Z,14.04
2022-09-20T07:39:28.129Z,14.00
2022-09-20T07:41:55.974Z,14.34
2022-09-20T07:44:27.923Z,14.04
2022-09-20T07:46:58.086Z,14.48
2022-09-20T07:49:27.276Z,14.73
2022-09-20T07:51:54.926Z,14.54
2022-09-20T07:54:22.507Z,14.06
2022-09-20T07:56:50.510Z,14.72
2022-09-20T07:59:18.177Z,14.65
2022-09-20T08:01:45.798Z,14.26
2022-09-20T08:04:13.789Z,14.73
2022-09-20T08:06:44.507Z,15.25
2022-09-20T08:09:14.709Z,14.95
2022-09-20T08:11:43.614Z,15.24
2022-09-20T08:14:16.406Z,15.65
2022-09-20T08:16:49.750Z,15.85
2022-09-20T08:19:22.877Z,15.80
2022-09-20T08:21:53.362Z,15.73
2022-09-20T08:24:21.626Z,15.83
2022-09-20T08:26:49.190Z,15.84
2022-09-20T08:29:17.931Z,16.34
2022-09-20T08:31:46.460Z,16.32
2022-09-20T08:34:15.440Z,16.61
2022-09-20T08:36:51.807Z,17.04
2022-09-20T08:42:24.915Z,17.18
2022-09-20T08:44:59.164Z,17.56
2022-09-20T08:47:31.305Z,17.46
2022-09-20T08:50:08.943Z,17.18
2022-09-20T08:52:40.808Z,17.56
2022-09-20T08:55:17.827Z,17.26
2022-09-20T08:57:54.399Z,17.38
2022-09-20T09:00:26.520Z,16.63
2022-09-20T09:02:58.284Z,17.00
2022-09-20T09:05:36.085Z,17.29
2022-09-20T09:08:16.302Z,17.71
2022-09-20T09:10:49.755Z,17.67
2022-09-20T09:14:26.992Z,17.36
2022-09-20T09:16:54.795Z,17.81
2022-09-20T09:19:34.611Z,18.18
2022-09-20T09:22:04.622Z,18.23
2022-09-20T09:24:32.543Z,17.79
2022-09-20T09:27:07.575Z,18.28
2022-09-20T09:29:35.869Z,18.52
2022-09-20T09:32:21.213Z,18.23
2022-09-20T09:34:49.598Z,18.81
2022-09-20T09:37:31.188Z,18.37
2022-09-20T09:40:18.411Z,18.58
2022-09-20T09:42:54.363Z,18.50
2022-09-20T09:45:31.543Z,19.01
2022-09-20T09:48:01.613Z,18.93
2022-09-20T09:50:32.272Z,19.15
2022-09-20T09:53:10.896Z,19.58
2022-09-20T09:55:52.738Z,18.98
2022-09-20T09:58:42.702Z,19.09
2022-09-20T10:01:33.254Z,19.66
2022-09-20T10:04:05.370Z,19.40
2022-09-20T10:07:02.278Z,19.12
2022-09-20T10:09:49.570Z,19.06
2022-09-20T10:12:26.299Z,18.99
2022-09-20T10:15:25.327Z,19.07
2022-09-20T10:18:12.306Z,18.68
2022-09-20T10:21:08.031Z,19.13
2022-09-20T10:26:49.050Z,18.90
2022-09-20T10:29:23.310Z,18.19
2022-09-20T10:32:18.960Z,18.78
2022-09-20T10:35:02.956Z,18.66
2022-09-20T10:37:58.656Z,18.81
2022-09-20T10:40:54.202Z,18.43
2022-09-20T10:43:37.793Z,18.66
2022-09-20T10:46:31.446Z,18.00
2022-09-20T10:49:05.114Z,18.20
2022-09-20T10:51:48.353Z,18.55
2022-09-20T10:54:22.352Z,18.55
2022-09-20T10:56:53.061Z,18.68
2022-09-20T10:59:27.893Z,18.63
2022-09-20T11:02:33.602Z,18.10
2022-09-20T11:05:39.306Z,18.62
2022-09-20T11:08:19.024Z,18.54
2022-09-20T11:10:58.327Z,18.50
2022-09-20T11:13:59.769Z,18.49
2022-09-20T11:16:41.806Z,18.70
2022-09-20T11:19:11.927Z,18.43
2022-09-20T11:21:49.379Z,18.45
2022-09-20T11:24:36.001Z,18.75
2022-09-20T11:27:25.703Z,18.24
2022-09-20T11:30:10.367Z,18.73
2022-09-20T11:32:49.419Z,18.77
2022-09-20T11:35:37.476Z,18.67
2022-09-20T11:38:24.982Z,18.71
2022-09-20T11:41:10.247Z,18.83
2022-09-20T11:43:42.811Z,18.45
2022-09-20T11:46:19.179Z,18.84
2022-09-20T11:49:02.854Z,18.73
2022-09-20T11:51:49.590Z,19.16
2022-09-20T11:54:54.775Z,18.95
2022-09-20T11:57:23.433Z,18.87
2022-09-20T12:00:02.884Z,18.84
2022-09-20T12:02:50.463Z,18.56
2022-09-20T12:05:35.384Z,18.30
2022-09-20T12:08:18.651Z,18.37
2022-09-20T12:10:58.267Z,18.29
2022-09-20T12:13:27.779Z,18.92
2022-09-20T12:16:05.777Z,19.00
2022-09-20T12:18:39.585Z,18.57
2022-09-20T12:21:15.432Z,18.51
2022-09-20T12:23:59.307Z,18.38
2022-09-20T12:26:27.105Z,18.74
2022-09-20T12:28:59.188Z,18.83
2022-09-20T12:31:31.899Z,18.27
2022-09-20T12:34:11.885Z,17.99
2022-09-20T12:36:44.783Z,18.38
2022-09-20T12:39:14.388Z,18.53
2022-09-20T12:41:51.660Z,18.69
2022-09-20T12:44:38.452Z,18.38
2022-09-20T12:47:12.132Z,19.09
2022-09-20T12:50:04.444Z,18.92
2022-09-20T12:52:50.404Z,18.73
2022-09-20T12:55:49.602Z,18.70
2022-09-20T12:58:22.990Z,18.40
2022-09-20T13:00:57.880Z,18.59
2022-09-20T13:03:36.369Z,18.98
2022-09-20T13:06:06.745Z,18.47
2022-09-20T13:08:43.437Z,18.80
2022-09-20T13:11:13.947Z,18.71
2022-09-20T13:13:44.543Z,18.84
2022-09-20T13:16:37.169Z,19.18
2022-09-20T13:19:29.987Z,19.48
2022-09-20T13:22:00.530Z,19.30
2022-09-20T13:24:35.654Z,18.92
2022-09-20T13:27:09.874Z,19.30
2022-09-20T13:29:42.400Z,18.97
2022-09-20T13:32:18.783Z,19.51
2022-09-20T13:34:46.788Z,19.42
2022-09-20T13:37:23.656Z,19.49
2022-09-20T13:39:55.533Z,19.11
2022-09-20T13:42:23.213Z,18.73
2022-09-20T13:44:51.427Z,19.01
2022-09-20T13:47:31.272Z,19.18
2022-09-20T13:50:18.145Z,18.76
2022-09-20T13:52:58.082Z,18.66
2022-09-20T13:55:37.710Z,19.18
2022-09-20T13:58:24.441Z,19.38
2022-09-20T14:00:59.347Z,19.35
2022-09-20T14:03:29.665Z,19.00
2022-09-20T14:06:02.532Z,18.93
2022-09-20T14:08:36.413Z,18.80
2022-09-20T14:11:14.441Z,18.39
2022-09-20T14:13:45.021Z,18.54
2022-09-20T14:16:13.254Z,18.44
2022-09-20T14:18:42.323Z,18.09
2022-09-20T14:21:11.565Z,18.08
2022-09-20T14:24:14.512Z,17.83
2022-09-20T14:26:59.375Z,18.19
2022-09-20T14:29:44.969Z,18.02
2022-09-20T14:32:18.341Z,17.85
2022-09-20T14:34:59.048Z,18.22
2022-09-20T14:37:43.604Z,18.24
2022-09-20T14:40:30.475Z,18.21
2022-09-20T14:43:01.795Z,17.99
2022-09-20T14:45:29.171Z,17.56
2022-09-20T14:48:18.305Z,17.70
2022-09-20T14:51:06.801Z,18.11
2022-09-20T14:53:37.186Z,18.04
2022-09-20T14:56:04.956Z,18.08
2022-09-20T14:58:33.684Z,18.02
2022-09-20T15:01:15.526Z,17.69
2022-09-20T15:03:43.502Z,17.74
2022-09-20T15:06:13.209Z,17.69
2022-09-20T15:08:45.687Z,17.50
2022-09-20T15:11:19.280Z,17.44
2022-09-20T15:13:46.823Z,17.33
2022-09-20T15:16:17.842Z,17.19
2022-09-20T15:18:45.538Z,17.33
2022-09-20T15:21:13.218Z,17.40
2022-09-20T15:23:41.372Z,17.31
2022-09-20T15:26:13.239Z,17.79
2022-09-20T15:28:41.391Z,17.52
2022-09-20T15:31:10.434Z,17.36
2022-09-20T15:33:38.019Z,17.28
2022-09-20T15:36:06.091Z,17.33
2022-09-20T15:38:34.572Z,17.21
2022-09-20T15:41:04.236Z,17.22
2022-09-20T15:43:32.563Z,17.29
2022-09-20T15:46:16.331Z,17.20
2022-09-20T15:48:44.249Z,17.58
2022-09-20T15:51:12.628Z,17.59
2022-09-20T15:53:45.836Z,17.80
2022-09-20T15:56:21.074Z,17.43
2022-09-20T15:59:00.891Z,17.60
2022-09-20T16:01:32.427Z,17.20
2022-09-20T16:04:00.562Z,17.56
2022-09-20T16:06:28.068Z,17.26
2022-09-20T16:08:55.726Z,17.32
2022-09-20T16:11:23.991Z,17.47
2022-09-20T16:13:59.116Z,17.42
2022-09-20T16:16:29.793Z,16.72
2022-09-20T16:19:16.377Z,16.26
2022-09-20T16:21:53.598Z,15.99
2022-09-20T16:24:34.301Z,15.99
2022-09-20T16:27:04.216Z,15.45
2022-09-20T16:29:32.311Z,15.14
2022-09-20T16:32:01.710Z,14.95
2022-09-20T16:34:32.519Z,15.18
2022-09-20T16:37:20.731Z,15.06
2022-09-20T16:39:48.789Z,14.84
2022-09-20T16:42:16.996Z,14.76
2022-09-20T16:44:44.574Z,15.19
2022-09-20T16:47:18.220Z,15.43
2022-09-20T16:49:47.274Z,14.84
2022-09-20T16:52:15.196Z,15.36
2022-09-20T16:54:42.855Z,15.40
2022-09-20T16:57:10.497Z,15.12
2022-09-20T16:59:38.293Z,15.29
2022-09-20T17:02:05.925Z,15.27
2022-09-20T17:04:33.555Z,15.18
2022-09-20T17:07:02.277Z,14.85
2022-09-20T17:09:29.813Z,14.87
2022-09-20T17:11:57.404Z,14.46
2022-09-20T17:14:25.797Z,14.82
2022-09-20T17:16:53.371Z,14.80
2022-09-20T17:19:21.212Z,14.59
2022-09-20T17:21:50.983Z,14.56
2022-09-20T17:24:20.871Z,14.53
2022-09-20T17:26:50.785Z,14.28
2022-09-20T17:29:20.517Z,14.36
2022-09-20T17:31:54.945Z,14.29
2022-09-20T17:34:25.362Z,14.43
2022-09-20T17:36:55.081Z,14.44
2022-09-20T17:39:23.320Z,13.96
2022-09-20T17:41:51.487Z,14.00
2022-09-20T17:44:19.362Z,13.48
2022-09-20T17:46:50.011Z,13.21
2022-09-20T17:49:20.180Z,13.02
2022-09-20T17:51:52.699Z,12.96
2022-09-20T17:54:21.345Z,12.90
2022-09-20T17:56:51.202Z,12.93
2022-09-20T17:59:20.135Z,12.98
2022-09-20T18:01:50.244Z,13.04
2022-09-20T18:04:20.921Z,12.94
2022-09-20T18:06:50.730Z,12.83
2022-09-20T18:09:21.471Z,12.86
2022-09-20T18:11:52.716Z,12.59
2022-09-20T18:14:23.355Z,12.69
2022-09-20T18:16:57.053Z,12.54
2022-09-20T18:19:32.295Z,12.48
2022-09-20T18:22:01.456Z,12.58
2022-09-20T18:24:30.046Z,12.48
2022-09-20T18:26:57.631Z,12.52
2022-09-20T18:29:25.284Z,12.64
2022-09-20T18:31:57.923Z,12.56
2022-09-20T18:34:32.033Z,12.61
2022-09-20T18:37:01.240Z,12.64
2022-09-20T18:39:33.701Z,12.53
2022-09-20T18:42:02.622Z,12.62
2022-09-20T18:44:33.985Z,12.74
2022-09-20T18:47:05.744Z,12.60
2022-09-20T18:49:33.401Z,12.56
2022-09-20T18:52:01.021Z,12.44
2022-09-20T18:54:33.414Z,12.98
2022-09-20T18:57:01.290Z,13.14
2022-09-20T18:59:33.203Z,13.37
2022-09-20T19:02:21.142Z,13.06
2022-09-20T19:04:51.967Z,12.98
2022-09-20T19:07:28.793Z,13.13
2022-09-20T19:10:05.521Z,13.24
2022-09-20T19:12:46.003Z,12.94
2022-09-20T19:15:32.594Z,13.14
2022-09-20T19:18:06.281Z,13.55
2022-09-20T19:20:59.117Z,13.77
2022-09-20T19:23:32.586Z,13.50
2022-09-20T19:26:23.637Z,13.67
2022-09-20T19:28:57.111Z,13.43
2022-09-20T19:31:33.694Z,13.99
2022-09-20T19:34:10.353Z,14.28
2022-09-20T19:37:12.283Z,14.19
2022-09-20T19:39:43.200Z,14.24
2022-09-20T19:42:19.596Z,14.13
2022-09-20T19:45:10.329Z,14.28
2022-09-20T19:47:53.098Z,13.89
2022-09-20T19:50:46.312Z,13.93
2022-09-20T19:53:16.974Z,13.98
2022-09-20T19:55:48.480Z,14.17
2022-09-20T19:58:16.848Z,13.97
2022-09-20T20:00:45.682Z,13.88
2022-09-20T20:03:15.627Z,13.87
2022-09-20T20:05:56.964Z,13.82
2022-09-20T20:08:37.592Z,13.75
2022-09-20T20:11:14.043Z,13.68
2022-09-20T20:14:04.691Z,13.67
2022-09-20T20:16:51.203Z,13.71
2022-09-20T20:19:38.315Z,13.62
2022-09-20T20:22:15.961Z,13.38
2022-09-20T20:24:53.719Z,13.37
2022-09-20T20:27:21.405Z,13.08
2022-09-20T20:29:49.712Z,13.38
2022-09-20T20:32:17.368Z,13.10
2022-09-20T20:34:45.284Z,13.15
2022-09-20T20:37:13.421Z,13.08
2022-09-20T20:39:40.931Z,13.19
2022-09-20T20:42:10.048Z,13.37
2022-09-20T20:44:37.889Z,13.08
2022-09-20T20:47:06.635Z,13.06
2022-09-20T20:49:34.526Z,13.49
2022-09-20T20:52:05.152Z,13.32
2022-09-20T20:54:32.917Z,13.37
2022-09-20T20:57:00.605Z,13.37
2022-09-20T20:59:28.555Z,13.33
2022-09-20T21:01:56.299Z,13.42
2022-09-20T21:04:25.446Z,12.76
2022-09-20T21:06:53.491Z,12.46
2022-09-20T21:09:21.058Z,12.67
2022-09-20T21:11:48.704Z,12.67
2022-09-20T21:14:16.849Z,12.35
2022-09-20T21:16:45.140Z,12.83
2022-09-20T21:19:18.298Z,12.67
2022-09-20T21:21:47.906Z,12.86
2022-09-20T21:24:19.388Z,12.88
2022-09-20T21:26:47.578Z,12.66
2022-09-20T21:29:16.568Z,12.96
2022-09-20T21:31:47.259Z,12.83
2022-09-20T21:34:16.499Z,13.24
2022-09-20T21:36:47.148Z,13.46
2022-09-20T21:39:15.010Z,13.48
2022-09-20T21:41:42.720Z,13.35
2022-09-20T21:44:10.790Z,13.13
2022-09-20T21:46:40.546Z,13.41
2022-09-20T21:49:11.262Z,13.35
2022-09-20T21:51:42.125Z,13.39
2022-09-20T21:54:10.982Z,13.60
2022-09-20T21:56:40.566Z,13.67
2022-09-20T21:59:08.442Z,13.62
2022-09-20T22:01:38.246Z,13.31
2022-09-20T22:04:09.454Z,13.26
2022-09-20T22:06:42.132Z,12.68
2022-09-20T22:09:12.971Z,13.15
2022-09-20T22:11:48.688Z,13.10
2022-09-20T22:14:19.668Z,13.01
2022-09-20T22:16:48.570Z,13.61
2022-09-20T22:19:17.627Z,13.54
2022-09-20T22:21:48.065Z,13.81
2022-09-20T22:24:16.844Z,13.99
2022-09-20T22:26:47.341Z,14.10
2022-09-20T22:29:15.987Z,13.97
2022-09-20T22:31:45.769Z,13.76
2022-09-20T22:34:15.779Z,14.12
2022-09-20T22:36:43.952Z,14.22
2022-09-20T22:39:12.673Z,13.93
2022-09-20T22:41:42.538Z,14.19
2022-09-20T22:44:10.905Z,13.99
2022-09-20T22:46:39.434Z,14.18
2022-09-20T22:49:08.829Z,14.28
2022-09-20T22:51:37.539Z,14.24
2022-09-20T22:54:08.178Z,14.10
2022-09-20T22:56:36.401Z,13.95
2022-09-20T22:59:08.727Z,13.60
2022-09-20T23:01:48.664Z,13.75
2022-09-20T23:04:19.133Z,13.85
2022-09-20T23:06:49.345Z,13.98
2022-09-20T23:09:18.430Z,14.09
2022-09-20T23:11:46.553Z,14.28
2022-09-20T23:14:16.749Z,14.24
2022-09-20T23:16:44.577Z,13.51
2022-09-20T23:19:12.652Z,13.50
2022-09-20T23:21:43.050Z,13.56
2022-09-20T23:24:13.304Z,13.36
2022-09-20T23:26:42.390Z,13.93
2022-09-20T23:29:15.590Z,13.98
2022-09-20T23:31:46.500Z,14.04
2022-09-20T23:34:15.744Z,14.18
2022-09-20T23:36:44.564Z,14.09
2022-09-20T23:39:12.659Z,14.27
2022-09-20T23:41:41.260Z,14.19
2022-09-20T23:44:10.266Z,14.07
2022-09-20T23:46:38.591Z,14.10
2022-09-20T23:49:07.139Z,14.16
2022-09-20T23:51:35.623Z,14.20
2022-09-20T23:54:03.928Z,14.23
2022-09-20T23:56:32.096Z,13.89
2022-09-20T23:58:59.884Z,13.96
